Terminal Aerodrome Forecast
Issued by NWS Spokane, WA

Home | Current Version | Previous Version | Text Only | Print | Product List | Glossary On
Versions: 1 2 3 4 5 6 7 8 9 10 11 12
000
FTUS46 KOTX 300539
TAFLWS
TAF
KLWS 300539Z 3006/3106 19008KT P6SM SKC
     FM300800 12004KT P6SM SKC
     FM301400 07008KT P6SM SKC
     FM301800 07004KT P6SM FEW250
     FM310400 24013G23KT P6SM FEW150 BKN200=

USA.gov is the U.S. government's official web portal to all federal, state and local government web resources and services.